Time;durP1;ratioP1;P1;durP2;ratioP2;P2;SDS_P1;SDS_P2;PMS_P1;PMS_P2;Temp;Humidity;BMP_temperature;BMP_pressure;BME280_temperature;BME280_humidity;BME280_pressure;Samples;Min_cycle;Max_cycle;Signal;HPM_P1;HPM_P2
2021/06/12 00:00:32;;;;;;;8.38;4.32;;;21.20;78.00;;;20.32;72.63;100820.13;4988561;28;20054;-78
2021/06/12 00:03:11;;;;;;;10.43;5.10;;;21.20;78.20;;;20.30;72.67;100812.06;4990741;28;20054;-78
2021/06/12 00:05:44;;;;;;;9.45;4.25;;;21.20;78.30;;;20.30;72.81;100809.28;5012103;28;20077;-79
2021/06/12 00:08:23;;;;;;;9.07;4.47;;;21.20;78.40;;;20.30;72.90;100800.16;5011294;28;20116;-79
2021/06/12 00:11:00;;;;;;;7.63;4.35;;;21.20;78.50;;;20.29;73.23;100799.31;5011525;28;20057;-78
2021/06/12 00:13:39;;;;;;;7.63;4.28;;;21.20;78.70;;;20.27;73.36;100795.13;5011577;28;20038;-79
2021/06/12 00:16:14;;;;;;;7.60;4.28;;;21.10;78.80;;;20.26;73.39;100796.22;5012005;28;20041;-79
2021/06/12 00:18:52;;;;;;;7.32;4.18;;;21.10;78.90;;;20.24;73.51;100796.44;5011864;28;20108;-78
2021/06/12 00:21:30;;;;;;;7.85;4.43;;;21.10;79.00;;;20.22;73.35;100792.22;5011413;28;20034;-78
2021/06/12 00:24:25;;;;;;;7.00;3.70;;;21.10;79.10;;;20.18;73.62;100786.38;5011780;28;20042;-78
2021/06/12 00:26:57;;;;;;;9.32;4.80;;;21.10;79.10;;;20.15;73.64;100781.31;5011446;28;20050;-79
2021/06/12 00:29:35;;;;;;;7.72;4.43;;;21.00;79.10;;;20.14;73.71;100778.78;5010068;28;20057;-78
2021/06/12 00:32:11;;;;;;;12.10;4.95;;;21.00;79.20;;;20.12;73.79;100779.03;5011120;28;20053;-78
2021/06/12 00:34:50;;;;;;;9.18;4.70;;;21.00;79.30;;;20.10;73.94;100784.81;5011520;28;20057;-78
2021/06/12 00:37:28;;;;;;;7.68;4.43;;;21.00;79.50;;;20.07;74.20;100771.47;5011360;28;20053;-79
2021/06/12 00:40:08;;;;;;;9.23;4.88;;;20.90;79.70;;;20.06;74.35;100782.75;5011390;28;20046;-78
2021/06/12 00:42:47;;;;;;;10.82;4.97;;;20.90;79.90;;;20.04;74.54;100784.94;5011288;28;20487;-79
2021/06/12 00:45:25;;;;;;;11.50;5.53;;;20.90;80.00;;;20.03;74.66;100783.22;5011441;28;20046;-78
2021/06/12 00:48:03;;;;;;;10.10;5.43;;;20.90;80.10;;;20.02;74.54;100781.56;5011074;28;20553;-79
2021/06/12 00:50:42;;;;;;;10.38;5.18;;;20.90;80.20;;;20.00;74.67;100780.97;5010878;28;20045;-78
2021/06/12 00:53:36;;;;;;;10.70;5.43;;;20.90;80.30;;;19.98;74.92;100780.38;5011268;28;20073;-78
2021/06/12 00:56:19;;;;;;;9.52;5.28;;;20.80;80.30;;;19.96;74.87;100774.25;5011107;28;20041;-78
2021/06/12 00:58:58;;;;;;;13.07;6.40;;;20.80;80.40;;;19.95;75.09;100769.78;5011171;28;20054;-78
2021/06/12 01:01:33;;;;;;;12.65;6.72;;;20.80;80.50;;;19.95;75.26;100770.63;5009281;28;20053;-78
2021/06/12 01:04:08;;;;;;;11.95;6.57;;;20.80;80.60;;;19.95;75.49;100759.56;5011160;28;20048;-78
2021/06/12 01:06:50;;;;;;;10.60;5.70;;;20.80;80.80;;;19.95;75.75;100775.31;5010719;28;20073;-78
2021/06/12 01:09:28;;;;;;;11.55;6.05;;;20.80;80.90;;;19.98;75.49;100763.78;5010848;28;20529;-78
2021/06/12 01:12:13;;;;;;;11.73;6.30;;;20.80;80.90;;;19.97;75.79;100759.34;5010357;28;20042;-78
2021/06/12 01:15:10;;;;;;;14.57;6.05;;;20.70;81.00;;;20.00;75.58;100767.16;5010657;28;20042;-78
2021/06/12 01:17:56;;;;;;;10.48;6.03;;;20.80;80.90;;;20.02;75.53;100760.28;5010412;28;20042;-78
2021/06/12 01:21:21;;;;;;;8.98;6.03;;;20.90;80.90;;;20.05;75.32;100767.28;5010684;28;20096;-78
2021/06/12 01:24:39;;;;;;;9.85;5.30;;;20.90;80.90;;;20.05;75.25;100759.81;4996274;28;20060;-79
2021/06/12 01:27:47;;;;;;;13.73;5.97;;;20.90;80.80;;;20.06;75.02;100764.25;5010444;28;20045;-79
2021/06/12 01:30:27;;;;;;;9.27;5.32;;;20.90;80.70;;;20.07;75.41;100765.13;5010086;28;20189;-78
2021/06/12 01:33:07;;;;;;;11.55;5.88;;;20.90;80.90;;;20.07;75.40;100760.41;5010411;28;20391;-78
2021/06/12 01:35:47;;;;;;;11.50;5.72;;;20.90;80.90;;;20.07;75.45;100763.19;4994687;28;20046;-78
2021/06/12 01:38:28;;;;;;;9.32;5.18;;;20.90;80.80;;;20.08;75.06;100758.50;4990850;28;20049;-78
2021/06/12 01:41:03;;;;;;;;;;;21.00;80.40;;;20.11;74.91;100761.59;4990800;28;20057;-79
2021/06/12 01:43:49;;;;;;;11.43;4.75;;;21.00;80.30;;;20.12;74.54;100765.22;4990878;28;19973;-78
2021/06/12 01:46:26;;;;;;;8.60;4.70;;;21.00;80.00;;;20.11;74.55;100778.19;4990109;28;20042;-79
2021/06/12 01:49:03;;;;;;;9.40;4.88;;;21.00;79.90;;;20.12;74.51;100759.69;5057940;22;20111;-76
2021/06/12 01:51:41;;;;;;;8.20;4.10;;;21.00;79.90;;;20.13;74.61;100766.91;5049075;28;20053;-77
2021/06/12 01:54:15;;;;;;;8.63;4.68;;;21.00;79.90;;;20.14;74.61;100778.78;5049752;28;20111;-76
2021/06/12 01:56:52;;;;;;;9.38;4.55;;;21.00;79.90;;;20.14;74.45;100774.09;5049550;28;20694;-76
2021/06/12 01:59:28;;;;;;;11.23;5.13;;;21.00;79.90;;;20.15;74.15;100778.56;5049509;28;20527;-76
2021/06/12 02:02:12;;;;;;;9.35;4.95;;;21.00;79.70;;;20.16;74.04;100777.44;5049528;28;20033;-76
2021/06/12 02:04:52;;;;;;;8.82;4.55;;;21.00;79.40;;;20.17;73.73;100786.59;5049643;28;20108;-76
2021/06/12 02:07:30;;;;;;;8.15;4.28;;;21.10;79.50;;;20.16;74.19;100787.66;5049474;28;20049;-77
2021/06/12 02:10:08;;;;;;;7.22;4.45;;;21.10;79.30;;;20.17;73.94;100794.91;5049079;28;20512;-76
2021/06/12 02:12:46;;;;;;;9.52;4.43;;;21.10;79.30;;;20.15;74.29;100788.78;5049484;28;20051;-76
2021/06/12 02:15:26;;;;;;;8.38;4.60;;;21.10;79.40;;;20.18;74.36;100797.44;5049200;28;20175;-76
2021/06/12 02:18:10;;;;;;;12.93;5.40;;;21.10;79.40;;;20.16;74.12;100788.50;5049232;28;20048;-77
2021/06/12 02:20:51;;;;;;;10.50;5.30;;;21.10;79.50;;;20.17;73.95;100790.19;5047408;28;20052;-76
2021/06/12 02:23:33;;;;;;;11.63;5.57;;;21.10;79.30;;;20.18;74.07;100797.44;5049260;28;20052;-76
2021/06/12 02:26:12;;;;;;;9.95;5.80;;;21.10;79.30;;;20.18;74.30;100791.91;5048228;28;20549;-76
2021/06/12 02:28:50;;;;;;;8.93;5.03;;;21.10;79.50;;;20.16;74.46;100791.28;5048943;28;20049;-76
2021/06/12 02:31:34;;;;;;;9.73;5.30;;;21.10;79.60;;;20.16;74.57;100782.16;5048573;28;20071;-76
2021/06/12 02:34:15;;;;;;;11.85;6.55;;;21.10;79.70;;;20.13;74.71;100783.47;5048764;28;20127;-76
2021/06/12 02:36:48;;;;;;;9.65;5.82;;;21.10;79.70;;;20.14;74.62;100784.31;5048528;28;20049;-76
2021/06/12 02:39:29;;;;;;;9.95;5.32;;;21.10;79.90;;;20.14;74.82;100796.19;5048867;28;20090;-76
2021/06/12 02:42:08;;;;;;;10.38;6.00;;;21.10;80.00;;;20.13;74.82;100796.47;5048749;28;20056;-76
2021/06/12 02:44:45;;;;;;;9.10;5.40;;;21.10;80.00;;;20.14;74.89;100790.66;5048884;28;20115;-76
2021/06/12 02:47:24;;;;;;;10.95;5.55;;;21.10;80.20;;;20.13;74.78;100786.25;5048343;28;20102;-76
2021/06/12 02:50:05;;;;;;;12.90;6.00;;;21.10;80.20;;;20.11;74.90;100785.66;5048481;28;20041;-76
2021/06/12 02:52:44;;;;;;;13.15;6.15;;;21.00;80.10;;;20.09;75.02;100779.53;5048771;28;21904;-76
2021/06/12 02:55:20;;;;;;;11.98;6.10;;;21.00;80.10;;;20.08;74.99;100783.34;5047859;28;20045;-76
2021/06/12 02:57:56;;;;;;;8.90;5.55;;;21.00;80.10;;;20.07;75.17;100792.75;5048262;28;20041;-76
2021/06/12 03:00:36;;;;;;;10.55;6.07;;;21.00;80.20;;;20.03;75.31;100797.03;5047904;28;20080;-76
2021/06/12 03:03:15;;;;;;;8.73;5.53;;;21.00;80.20;;;20.02;75.45;100793.44;5047129;28;20060;-76
2021/06/12 03:05:55;;;;;;;9.88;5.65;;;21.00;80.40;;;20.03;75.33;100788.75;5048218;28;20066;-76
2021/06/12 03:08:38;;;;;;;9.95;5.80;;;21.00;80.50;;;20.03;75.38;100794.28;5048426;28;20068;-76
2021/06/12 03:11:19;;;;;;;7.82;5.22;;;21.00;80.30;;;20.01;75.28;100791.78;5047774;28;20049;-76
2021/06/12 03:13:59;;;;;;;12.55;5.47;;;21.00;80.40;;;20.00;75.26;100795.63;5046768;28;20433;-76
2021/06/12 03:16:37;;;;;;;9.48;5.22;;;21.00;80.40;;;20.02;74.95;100792.63;5047912;28;20476;-76
2021/06/12 03:19:15;;;;;;;9.10;4.63;;;21.00;80.30;;;19.99;75.50;100798.59;5048447;28;20771;-76
2021/06/12 03:22:07;;;;;;;9.80;4.25;;;21.00;80.50;;;19.94;75.38;100796.56;5047917;28;20052;-76
2021/06/12 03:24:46;;;;;;;10.38;4.70;;;20.90;80.50;;;19.92;75.47;100794.06;5048262;28;20041;-76
2021/06/12 03:27:20;;;;;;;8.80;4.35;;;20.90;80.60;;;19.91;75.34;100786.88;5048064;28;20152;-76
2021/06/12 03:29:56;;;;;;;7.10;4.35;;;20.90;80.60;;;19.89;75.35;100783.47;5047900;28;20049;-76
2021/06/12 03:32:33;;;;;;;8.68;4.32;;;20.90;80.60;;;19.86;75.19;100783.97;5048124;28;20067;-76
2021/06/12 03:35:12;;;;;;;8.15;4.78;;;20.80;80.40;;;19.84;75.25;100779.78;5048283;28;20064;-76
2021/06/12 03:37:52;;;;;;;10.50;4.70;;;20.80;80.50;;;19.80;75.40;100782.19;5049837;28;20045;-76
2021/06/12 03:40:24;;;;;;;13.60;4.80;;;20.80;80.50;;;19.79;75.35;100777.72;5051793;28;20571;-76
2021/06/12 03:43:04;;;;;;;10.00;5.00;;;20.70;80.60;;;19.79;75.39;100779.66;5048843;28;20053;-76
2021/06/12 03:45:42;;;;;;;12.07;5.55;;;20.70;80.70;;;19.78;75.49;100776.06;5051834;28;20049;-76
2021/06/12 03:48:23;;;;;;;10.90;4.63;;;20.70;80.80;;;19.77;75.56;100774.34;5051832;28;20048;-76
2021/06/12 03:50:57;;;;;;;;;;;20.70;80.90;;;19.77;75.72;100771.59;5052152;28;20060;-76
2021/06/12 03:53:44;;;;;;;8.48;3.90;;;20.70;81.00;;;19.73;75.98;100779.50;5052103;28;19928;-76
2021/06/12 03:56:21;;;;;;;11.60;4.95;;;20.70;81.20;;;19.71;75.99;100780.81;5051784;28;20493;-76
2021/06/12 03:58:57;;;;;;;11.57;4.40;;;20.70;81.10;;;19.72;75.80;100788.91;5052132;28;20078;-76
2021/06/12 04:01:32;;;;;;;8.50;3.97;;;20.60;80.90;;;19.70;75.79;100793.78;5051480;28;20528;-76
2021/06/12 04:04:10;;;;;;;7.70;3.92;;;20.60;80.90;;;19.69;75.93;100800.38;5047395;28;20111;-76
2021/06/12 04:06:48;;;;;;;10.02;4.30;;;20.60;81.00;;;19.70;76.04;100803.97;5031267;28;20099;-76
2021/06/12 04:09:24;;;;;;;12.07;4.18;;;20.60;81.00;;;19.71;75.92;100805.66;5031899;28;20498;-76
2021/06/12 04:12:02;;;;;;;7.55;4.13;;;20.70;81.20;;;19.71;75.87;100800.97;5030297;28;20052;-76
2021/06/12 04:14:37;;;;;;;10.10;4.68;;;20.70;81.30;;;19.71;75.99;100798.22;5031703;28;20099;-76
2021/06/12 04:17:16;;;;;;;11.35;4.00;;;20.60;81.20;;;19.73;75.90;100795.25;5049908;28;20064;-76
2021/06/12 04:19:54;;;;;;;9.40;5.30;;;20.60;81.20;;;19.71;75.93;100797.38;5051398;28;20434;-76
2021/06/12 04:22:34;;;;;;;12.70;5.33;;;20.60;81.10;;;19.72;75.70;100799.06;5051678;28;20049;-76
2021/06/12 04:25:10;;;;;;;10.70;5.30;;;20.60;81.00;;;19.73;75.66;100798.84;5051205;28;20299;-76
2021/06/12 04:27:48;;;;;;;14.45;5.85;;;20.60;80.90;;;19.74;75.68;100794.16;5051368;28;20045;-76
2021/06/12 04:30:27;;;;;;;15.43;5.50;;;20.60;81.00;;;19.75;75.57;100787.56;5050998;28;20041;-76
2021/06/12 04:33:03;;;;;;;10.55;5.25;;;20.60;80.90;;;19.75;75.72;100781.22;5051332;28;20520;-76
2021/06/12 04:35:41;;;;;;;10.05;4.95;;;20.60;81.10;;;19.76;75.77;100777.34;5050990;28;20048;-76
2021/06/12 04:38:14;;;;;;;11.80;5.43;;;20.60;81.10;;;19.76;76.03;100772.66;5051244;28;20041;-76
2021/06/12 04:40:53;;;;;;;10.48;5.10;;;20.70;81.30;;;19.75;76.14;100765.47;5050797;28;20051;-76
2021/06/12 04:43:28;;;;;;;13.25;5.22;;;20.70;81.60;;;19.77;76.19;100768.84;5051182;28;20041;-76
2021/06/12 04:46:04;;;;;;;9.70;4.60;;;20.70;81.60;;;19.79;76.73;100766.66;5050820;28;20079;-76
2021/06/12 04:48:39;;;;;;;8.95;5.00;;;20.70;81.70;;;19.78;76.31;100775.19;5050115;28;20056;-76
2021/06/12 04:51:17;;;;;;;9.73;5.13;;;20.70;81.50;;;19.77;76.30;100768.84;5050604;28;20063;-76
2021/06/12 04:53:55;;;;;;;9.65;4.45;;;20.70;81.60;;;19.77;76.30;100763.31;5050717;28;20045;-76
2021/06/12 04:56:35;;;;;;;13.38;5.03;;;20.70;81.60;;;19.77;76.50;100763.31;5050543;28;20445;-76
2021/06/12 04:59:13;;;;;;;10.38;5.40;;;20.70;81.70;;;19.78;76.66;100765.00;5065888;28;20049;-79
2021/06/12 05:01:51;;;;;;;11.38;5.03;;;20.70;81.90;;;19.77;77.00;100763.31;5050558;28;20512;-80
2021/06/12 05:04:29;;;;;;;9.77;5.03;;;20.70;82.00;;;19.77;76.86;100760.53;5050479;28;20063;-84
2021/06/12 05:07:04;;;;;;;14.35;5.45;;;20.70;81.90;;;19.79;77.19;100766.66;5049079;28;20061;-79
2021/06/12 05:09:40;;;;;;;12.55;5.25;;;20.70;82.00;;;19.81;77.49;100770.03;5049766;28;20393;-81
2021/06/12 05:12:17;;;;;;;10.80;5.68;;;20.80;82.10;;;19.85;77.40;100770.41;5050543;28;20044;-81
2021/06/12 05:14:56;;;;;;;14.25;5.63;;;20.80;82.00;;;19.86;77.68;100767.41;5050329;28;20041;-81
2021/06/12 05:17:32;;;;;;;11.95;5.85;;;20.90;82.40;;;19.90;78.24;100774.13;5050222;28;20048;-81
2021/06/12 05:20:12;;;;;;;13.77;6.28;;;20.90;82.70;;;19.94;78.20;100779.19;5050092;28;20414;-81
2021/06/12 05:22:51;;;;;;;13.85;6.68;;;21.00;82.50;;;19.97;78.26;100775.91;5050207;28;20440;-81
2021/06/12 05:25:29;;;;;;;14.70;6.97;;;21.00;82.50;;;19.99;78.18;100782.03;5034407;28;20092;-81
2021/06/12 05:28:06;;;;;;;14.88;6.47;;;21.10;82.50;;;20.04;78.04;100784.94;5030127;28;20057;-81
2021/06/12 05:30:41;;;;;;;16.08;6.97;;;21.20;82.20;;;20.07;77.80;100776.16;5029626;28;20045;-81
2021/06/12 05:33:19;;;;;;;14.82;7.22;;;21.20;81.70;;;20.10;77.67;100773.75;5030235;28;20041;-81
2021/06/12 05:35:58;;;;;;;18.83;8.25;;;21.30;81.40;;;20.16;77.60;100773.84;5045396;28;20827;-77
2021/06/12 05:38:38;;;;;;;17.30;8.05;;;21.40;81.60;;;20.23;77.35;100771.81;5030220;28;20045;-80
2021/06/12 05:41:13;;;;;;;17.23;7.93;;;21.50;81.30;;;20.28;77.35;100771.94;5029959;28;20057;-78
2021/06/12 05:43:52;;;;;;;15.45;7.95;;;21.50;81.00;;;20.31;77.27;100769.53;5034658;28;20504;-79
2021/06/12 05:46:30;;;;;;;14.57;7.38;;;21.60;80.80;;;20.34;77.07;100772.88;5049989;28;20041;-78
2021/06/12 05:49:03;;;;;;;16.15;7.35;;;21.60;80.30;;;20.40;77.01;100777.44;5049666;28;20606;-78
2021/06/12 05:51:43;;;;;;;15.80;7.38;;;21.70;80.20;;;20.43;76.98;100771.44;5049649;28;20729;-78
2021/06/12 05:54:21;;;;;;;17.00;7.75;;;21.80;80.20;;;20.48;76.92;100775.13;5049727;28;20086;-78
2021/06/12 05:56:59;;;;;;;16.77;8.98;;;21.90;80.00;;;20.59;77.00;100776.19;5049606;28;20052;-78
2021/06/12 05:59:43;;;;;;;19.75;8.75;;;22.40;78.80;;;20.75;76.93;100782.88;5048058;28;20484;-79
2021/06/12 06:02:18;;;;;;;15.35;8.25;;;22.90;77.20;;;20.91;77.02;100778.50;5047201;28;20394;-79
2021/06/12 06:04:54;;;;;;;17.63;9.25;;;23.40;75.60;;;21.08;75.96;100784.94;5049419;28;20493;-79
2021/06/12 06:07:26;;;;;;;16.63;9.00;;;23.90;73.60;;;21.25;75.14;100784.13;5043946;28;20065;-79
2021/06/12 06:10:04;;;;;;;13.20;8.07;;;24.20;71.80;;;21.36;74.89;100786.00;5028854;28;20111;-79
2021/06/12 06:12:40;;;;;;;17.10;8.60;;;24.10;72.10;;;21.43;74.61;100783.88;5029597;28;20045;-79
2021/06/12 06:15:20;;;;;;;14.27;8.38;;;24.10;72.30;;;21.53;74.35;100790.72;5027967;28;20049;-78
2021/06/12 06:17:59;;;;;;;15.52;8.82;;;24.30;72.30;;;21.58;73.87;100788.03;5029116;28;20049;-78
2021/06/12 06:20:37;;;;;;;16.17;8.30;;;24.30;71.30;;;21.67;73.96;100786.53;5029258;28;20050;-77
2021/06/12 06:23:15;;;;;;;14.80;8.25;;;24.90;70.00;;;21.77;73.93;100794.19;5029275;28;20053;-77
2021/06/12 06:25:52;;;;;;;14.32;9.30;;;25.10;69.10;;;21.88;74.09;100789.66;5029297;28;20580;-80
2021/06/12 06:28:31;;;;;;;16.67;8.80;;;25.20;68.70;;;21.97;73.76;100790.88;5029125;28;20048;-77
2021/06/12 06:31:22;;;;;;;17.58;9.13;;;25.30;67.90;;;21.97;73.33;100793.66;5027441;28;20045;-80
2021/06/12 06:33:55;;;;;;;;;;;24.80;69.30;;;21.93;72.60;100801.63;5029512;28;20232;-77
2021/06/12 06:36:33;;;;;;;27.02;9.52;;;24.30;70.50;;;21.88;73.19;100800.72;5034412;28;19963;-76
2021/06/12 06:39:08;;;;;;;15.80;9.50;;;24.00;72.30;;;21.80;73.35;100802.81;5028961;28;20052;-76
2021/06/12 06:41:46;;;;;;;17.15;9.73;;;23.80;73.20;;;21.76;73.50;100809.97;5029082;28;20067;-77
2021/06/12 06:44:22;;;;;;;18.77;10.70;;;23.60;73.70;;;21.68;73.58;100796.50;5039130;28;20047;-75
2021/06/12 06:47:02;;;;;;;20.40;12.30;;;23.40;74.40;;;21.59;73.09;100807.19;5040313;28;20398;-75
2021/06/12 06:49:35;;;;;;;23.50;12.18;;;23.20;74.50;;;21.55;73.58;100810.69;5034874;28;20052;-76
2021/06/12 06:52:13;;;;;;;24.73;12.27;;;23.10;75.70;;;21.47;73.75;100798.94;5037368;28;20430;-77
2021/06/12 06:54:49;;;;;;;18.70;12.38;;;22.90;75.90;;;21.43;74.35;100796.91;5044114;28;20131;-76
2021/06/12 06:57:28;;;;;;;21.67;12.20;;;22.90;76.70;;;21.39;74.79;100807.63;5028757;28;20056;-81
2021/06/12 07:00:07;;;;;;;20.88;12.55;;;22.80;77.10;;;21.39;75.01;100802.09;5028574;28;20494;-77
2021/06/12 07:02:51;;;;;;;20.83;11.88;;;22.80;77.10;;;21.31;74.46;100810.81;5029306;28;20033;-77
2021/06/12 07:05:29;;;;;;;17.17;11.73;;;22.80;76.60;;;21.29;74.54;100824.06;5036251;28;20096;-77
2021/06/12 07:08:02;;;;;;;17.55;11.48;;;22.80;76.50;;;21.27;74.42;100820.72;5027267;28;20140;-77
2021/06/12 07:10:40;;;;;;;26.55;15.57;;;22.80;76.90;;;21.23;73.64;100819.53;5030031;28;20041;-77
2021/06/12 07:13:22;;;;;;;21.23;15.40;;;22.70;76.20;;;21.19;73.81;100829.38;5046988;28;20160;-77
2021/06/12 07:15:57;;;;;;;;;;;22.60;76.60;;;21.13;73.83;100824.84;5047159;28;20060;-77
2021/06/12 07:18:40;;;;;;;20.23;14.15;;;22.50;76.90;;;21.05;74.21;100829.69;5042578;28;19928;-77
2021/06/12 07:21:27;;;;;;;21.08;14.75;;;22.40;77.10;;;20.97;74.22;100835.63;5039096;28;20049;-77
2021/06/12 07:24:08;;;;;;;21.42;15.38;;;22.30;77.20;;;20.91;74.22;100828.31;5040582;28;20136;-77
2021/06/12 07:26:44;;;;;;;21.63;15.10;;;22.20;77.40;;;20.89;74.51;100836.03;5048622;28;20119;-77
2021/06/12 07:29:20;;;;;;;25.05;15.15;;;22.10;77.80;;;20.87;74.63;100829.91;5048226;28;20047;-77
2021/06/12 07:31:58;;;;;;;25.15;16.55;;;22.10;78.10;;;20.84;74.97;100828.44;5048507;28;20049;-77
2021/06/12 07:34:38;;;;;;;28.42;20.50;;;22.00;78.40;;;20.80;74.53;100837.50;5048496;28;20114;-77
2021/06/12 07:37:11;;;;;;;27.77;21.27;;;22.10;77.90;;;20.78;74.56;100836.91;5048566;28;20131;-77
2021/06/12 07:39:49;;;;;;;30.10;21.58;;;22.10;78.10;;;20.75;74.66;100840.13;5047559;28;20094;-77
2021/06/12 07:42:27;;;;;;;33.00;24.40;;;22.00;77.90;;;20.76;74.53;100841.84;5048186;28;20041;-77
2021/06/12 07:45:06;;;;;;;30.88;23.75;;;22.00;77.90;;;20.72;74.50;100835.94;5048406;28;20045;-77
2021/06/12 07:47:44;;;;;;;28.33;22.83;;;22.00;78.10;;;20.73;74.88;100839.53;5049806;22;20036;-83
2021/06/12 07:50:25;;;;;;;32.00;22.83;;;21.90;78.50;;;20.74;74.72;100844.00;5027031;28;20046;-80
2021/06/12 07:53:03;;;;;;;28.45;20.90;;;21.90;78.40;;;20.65;74.52;100847.13;5026858;28;20060;-80
2021/06/12 07:55:41;;;;;;;26.95;20.10;;;21.90;78.20;;;20.63;74.65;100843.78;5028403;28;20041;-80
2021/06/12 07:58:20;;;;;;;27.70;20.45;;;21.90;78.30;;;20.63;74.76;100834.63;5020605;28;20465;-80
2021/06/12 08:00:58;;;;;;;28.02;20.55;;;21.80;78.50;;;20.58;75.17;100845.56;4990311;28;20065;-80
2021/06/12 08:03:38;;;;;;;26.90;20.67;;;21.80;78.70;;;20.60;75.35;100838.75;4988830;28;20125;-80
2021/06/12 08:06:18;;;;;;;24.63;18.77;;;21.70;79.00;;;20.58;75.24;100846.41;4988884;28;20038;-80
2021/06/12 08:08:56;;;;;;;28.08;20.17;;;21.70;78.90;;;20.56;75.21;100854.13;4999260;28;20129;-80
2021/06/12 08:11:34;;;;;;;27.15;19.52;;;21.70;79.10;;;20.51;75.24;100851.22;5008225;28;20053;-80
2021/06/12 08:14:06;;;;;;;25.58;18.20;;;21.60;78.90;;;20.50;75.15;100852.28;5007932;28;20091;-80
2021/06/12 08:16:42;;;;;;;23.35;18.05;;;21.60;79.20;;;20.50;75.58;100861.44;5008328;28;20125;-79
2021/06/12 08:19:20;;;;;;;24.90;19.42;;;21.60;79.60;;;20.49;75.70;100864.44;4995868;28;20502;-80
2021/06/12 08:22:11;;;;;;;21.77;17.55;;;21.60;79.80;;;20.46;75.84;100864.94;5008181;28;20056;-80
2021/06/12 08:24:49;;;;;;;23.90;17.48;;;21.60;80.00;;;20.45;75.92;100863.25;5008323;28;20515;-80
2021/06/12 08:27:25;;;;;;;24.45;17.27;;;21.60;80.00;;;20.44;76.29;100865.16;5011701;28;20408;-80
2021/06/12 08:30:00;;;;;;;24.50;17.13;;;21.50;80.30;;;20.43;76.96;100868.19;4992142;28;20055;-81
2021/06/12 08:32:39;;;;;;;22.25;18.10;;;21.50;80.70;;;20.44;76.49;100872.63;4995636;28;20117;-81
2021/06/12 08:35:15;;;;;;;28.33;19.38;;;21.40;80.50;;;20.42;76.47;100872.03;5001036;28;20039;-81
2021/06/12 08:37:59;;;;;;;26.33;18.13;;;21.40;80.50;;;20.40;76.73;100860.38;5009316;28;20050;-81
2021/06/12 08:40:38;;;;;;;26.58;18.90;;;21.40;81.00;;;20.36;77.42;100853.66;5015770;28;20113;-82
2021/06/12 08:43:21;;;;;;;27.38;19.35;;;21.40;81.30;;;20.36;78.22;100861.94;4994696;28;20046;-82
2021/06/12 08:46:00;;;;;;;25.55;18.42;;;21.40;81.70;;;20.37;78.49;100858.06;5011753;28;20135;-81
2021/06/12 08:48:38;;;;;;;22.38;17.70;;;21.40;82.00;;;20.40;78.63;100866.72;5003098;28;20049;-82
2021/06/12 08:51:17;;;;;;;25.65;17.23;;;21.50;82.30;;;20.42;78.16;100870.09;4997358;28;20096;-81
2021/06/12 08:53:57;;;;;;;21.25;15.95;;;21.50;82.10;;;20.46;78.62;100864.94;5024105;28;20410;-82
2021/06/12 08:56:35;;;;;;;20.23;16.37;;;21.60;82.00;;;20.47;78.32;100856.41;5005658;28;20123;-81
2021/06/12 08:59:11;;;;;;;22.50;15.63;;;21.60;81.60;;;20.53;79.02;100862.06;5015547;28;20443;-81
2021/06/12 09:01:47;;;;;;;22.63;16.58;;;21.70;82.00;;;20.56;79.55;100858.78;5020788;28;20108;-81
2021/06/12 09:04:43;;;;;;;21.80;15.52;;;21.90;81.90;;;20.60;78.90;100873.84;5022075;28;20056;-81
2021/06/12 09:07:39;;;;;;;19.85;14.65;;;22.00;81.20;;;20.61;77.67;100867.22;5009727;28;20076;-81
2021/06/12 09:10:56;;;;;;;18.40;14.52;;;22.00;80.30;;;20.65;77.54;100869.25;5020625;28;20540;-81
2021/06/12 09:13:51;;;;;;;18.45;12.80;;;22.00;79.70;;;20.74;77.27;100866.13;5026668;28;20129;-82
2021/06/12 09:16:43;;;;;;;17.42;12.10;;;22.10;80.00;;;20.78;77.19;100862.63;5014166;28;20060;-81
2021/06/12 09:19:25;;;;;;;17.05;12.52;;;22.20;79.90;;;20.86;77.83;100880.75;5010895;28;20042;-82
2021/06/12 09:22:06;;;;;;;19.48;13.55;;;22.30;80.30;;;20.85;75.61;100890.16;5005865;28;20067;-81
2021/06/12 09:24:50;;;;;;;20.25;13.63;;;22.30;78.20;;;20.84;76.13;100883.78;5010864;28;20046;-81
2021/06/12 09:27:26;;;;;;;19.65;13.20;;;22.30;78.70;;;20.86;76.18;100886.31;5008846;28;20113;-82
2021/06/12 09:30:03;;;;;;;20.10;13.45;;;22.30;78.80;;;20.81;75.12;100883.41;5023213;28;20053;-82
2021/06/12 09:32:49;;;;;;;20.92;14.15;;;22.30;77.70;;;20.75;74.12;100901.00;4995492;28;20096;-81
2021/06/12 09:35:37;;;;;;;19.15;14.70;;;22.20;76.80;;;20.72;74.68;100902.34;4994960;28;20041;-82
2021/06/12 09:38:33;;;;;;;18.02;13.32;;;22.10;77.60;;;20.76;74.99;100910.97;5013439;28;20042;-81
2021/06/12 09:41:31;;;;;;;19.35;13.75;;;22.10;78.20;;;20.77;74.90;100901.59;5013336;28;20046;-82
2021/06/12 09:44:08;;;;;;;20.50;13.23;;;22.10;78.10;;;20.78;75.05;100904.13;5010290;28;20502;-82
2021/06/12 09:46:49;;;;;;;23.95;16.55;;;22.10;78.30;;;20.80;74.66;100914.94;5013176;28;20049;-81
2021/06/12 09:49:40;;;;;;;20.90;15.75;;;22.20;78.10;;;20.84;75.41;100896.78;5003571;28;20407;-82
2021/06/12 09:52:21;;;;;;;19.00;15.20;;;22.20;78.00;;;20.87;75.48;100894.34;5026641;28;20117;-82
2021/06/12 09:54:59;;;;;;;;;;;22.30;78.00;;;20.90;74.41;100893.03;5019279;28;20128;-82
2021/06/12 09:57:48;;;;;;;26.20;14.88;;;22.30;77.40;;;20.92;74.63;100884.47;5016703;28;20464;-82
2021/06/12 10:00:39;;;;;;;19.85;15.35;;;22.30;77.40;;;20.94;74.58;100896.97;5016109;28;20072;-81
2021/06/12 10:03:32;;;;;;;25.10;14.50;;;22.40;77.70;;;20.96;74.49;100892.06;5012881;28;20584;-82
2021/06/12 10:06:24;;;;;;;21.70;14.57;;;22.40;77.10;;;20.99;74.76;100891.56;5014533;28;20048;-82
2021/06/12 10:09:00;;;;;;;20.42;14.43;;;22.40;77.30;;;20.95;72.40;100890.38;5016105;28;20034;-82
2021/06/12 10:11:40;;;;;;;21.70;14.55;;;22.40;74.90;;;20.99;72.98;100885.19;5027198;28;20124;-82
2021/06/12 10:14:20;;;;;;;23.88;14.90;;;22.40;75.90;;;20.99;73.31;100896.25;5023122;28;20037;-81
2021/06/12 10:17:00;;;;;;;21.17;14.77;;;22.50;75.70;;;20.95;73.13;100895.91;5020817;28;20096;-82
2021/06/12 10:19:40;;;;;;;17.55;13.52;;;22.50;75.60;;;20.98;73.21;100900.09;5023315;28;20120;-82
2021/06/12 10:22:13;;;;;;;18.58;12.57;;;22.50;76.20;;;20.98;73.42;100897.34;5021511;28;20508;-82
2021/06/12 10:24:53;;;;;;;16.42;12.25;;;22.50;76.00;;;21.00;72.94;100906.22;5017424;28;20037;-82
2021/06/12 10:27:31;;;;;;;13.80;10.00;;;22.50;75.80;;;21.07;74.80;100896.69;5016188;28;20161;-82
2021/06/12 10:30:10;;;;;;;16.80;11.75;;;22.60;76.60;;;21.11;73.76;100888.75;5025356;28;20413;-82
2021/06/12 10:33:10;;;;;;;17.10;11.98;;;22.60;76.40;;;21.13;71.72;100896.81;5009817;28;20037;-81
2021/06/12 10:35:48;;;;;;;15.68;11.40;;;22.60;74.80;;;21.17;72.90;100889.69;5013530;28;20037;-82
2021/06/12 10:38:32;;;;;;;19.67;12.75;;;22.70;75.40;;;21.21;72.29;100890.88;4999209;28;20068;-82
2021/06/12 10:41:22;;;;;;;18.05;12.35;;;22.70;75.30;;;21.27;73.03;100893.50;5009403;28;20379;-82
2021/06/12 10:44:02;;;;;;;18.60;12.05;;;22.70;75.70;;;21.34;73.35;100895.28;4989783;28;20130;-82
2021/06/12 10:46:47;;;;;;;13.65;10.45;;;22.80;75.20;;;21.41;73.00;100885.75;4989294;28;20066;-82
2021/06/12 10:49:35;;;;;;;13.82;9.90;;;22.90;75.30;;;21.45;74.13;100875.06;5015308;28;20120;-81
2021/06/12 10:52:12;;;;;;;19.77;11.52;;;22.90;76.20;;;21.42;71.77;100883.84;5016087;28;20061;-82
2021/06/12 10:54:50;;;;;;;13.48;10.30;;;23.00;74.30;;;21.40;69.97;100886.00;5017117;28;20034;-82
2021/06/12 10:57:40;;;;;;;16.73;11.35;;;23.00;73.20;;;21.38;70.09;100888.16;5007767;28;20069;-81